Arjeplog, Sweden

2:26 AM CET on December 10, 2016 (GMT +0100)
Arvidsjaur | | Change Station

Elev 1243 ft 65.59 °N, 19.28 °E | Updated 6 minutes ago

Clear
Clear
14 °F
Feels Like -1 °F
N
15
Wind Variable Wind from West

Today
High -- | Low -- °F
--% Chance of Precip.
Yesterday
High -- | Low -- °F
Precip. -- in
Pressure 29.74 in
Visibility 6.2 miles
Clouds
Windchill -1 °F
Dew Point 7 °F
Humidity 73%
Rainfall 0.00 in
Snow Depth Not available.
10:06 AM 1:16 PM
Waxing Gibbous, 79% visible
METAR ESNX 100120Z AUTO 28013KT 9999 NCD M10/M14 Q1007
Pressure 29.74 in
Visibility 6.2 miles
Clouds
Windchill -1 °F
Dew Point 7 °F
Humidity 73%
Rainfall 0.00 in
Snow Depth Not available.
10:06 AM 1:16 PM
Waxing Gibbous, 79% visible
METAR ESNX 100120Z AUTO 28013KT 9999 NCD M10/M14 Q1007

10-Day Weather Forecast

×

Almanac

Astronomy

Dec. 10, 2016 Rise Set
Actual Time
Civil Twilight
Nautical Twilight
Astronomical Twilight
Moon
Length of Visible Light
Length of Day
Tomorrow will be .
, % of the Moon is Illuminated

Today's Extremes

Country Highs Country Lows

Community

WunderPhotos

Upload Photos

1,956,534 photos uploaded!

WunderBlog® & News

Nearby

Air Quality

  Air Quality AQ Index Pollutant
Not available.

Snow Depth

Station Depth Elevation

Earthquake Activity

City Distance Mag. Time & Date
Minimum magnitude displayed is 2.5.

Coastal Water Temperatures

Place Temperature

Stations

Nearby Weather Stations

Station Location Temp. Windchill Dew Point Humidity Wind Precip. Elev Updated Type